Time;durP1;ratioP1;P1;durP2;ratioP2;P2;SDS_P1;SDS_P2;PMS_P1;PMS_P2;Temp;Humidity;BMP_temperature;BMP_pressure;BME280_temperature;BME280_humidity;BME280_pressure;Samples;Min_cycle;Max_cycle;Signal;HPM_P1;HPM_P2
2023/02/01 00:01:14;;;;;;;25.98;6.93;;;;;;;5.29;86.85;101649.13;5029310;28;20061;-45
2023/02/01 00:03:40;;;;;;;21.50;4.60;;;;;;;5.29;86.74;101638.16;5029685;28;20487;-45
2023/02/01 00:06:07;;;;;;;22.02;4.00;;;;;;;5.30;86.89;101641.69;5027702;28;20780;-45
2023/02/01 00:08:35;;;;;;;16.75;3.42;;;;;;;5.31;86.91;101632.34;5028309;28;20128;-46
2023/02/01 00:11:05;;;;;;;23.02;4.68;;;;;;;5.30;86.83;101627.97;5027399;28;20119;-45
2023/02/01 00:13:34;;;;;;;16.73;4.03;;;;;;;5.29;86.92;101635.41;5022686;28;20049;-52
2023/02/01 00:16:19;;;;;;;15.57;3.65;;;;;;;5.29;87.08;101631.81;5024781;28;20051;-48
2023/02/01 00:18:48;;;;;;;19.17;4.53;;;;;;;5.30;87.02;101634.28;5027383;28;20393;-44
2023/02/01 00:21:16;;;;;;;20.63;4.32;;;;;;;5.31;86.90;101637.84;5028577;28;20115;-45
2023/02/01 00:23:44;;;;;;;25.45;3.63;;;;;;;5.29;86.78;101638.16;5029181;28;20068;-46
2023/02/01 00:26:29;;;;;;;24.90;4.95;;;;;;;5.28;86.95;101639.25;5027406;28;20080;-46
2023/02/01 00:28:56;;;;;;;21.40;4.00;;;;;;;5.26;87.04;101633.22;5027900;28;20076;-50
2023/02/01 00:31:23;;;;;;;18.80;4.43;;;;;;;5.28;87.25;101643.91;5029321;28;20060;-47
2023/02/01 00:33:52;;;;;;;19.67;3.85;;;;;;;5.26;87.42;101637.88;5032743;28;20045;-46
2023/02/01 00:36:19;;;;;;;20.08;4.55;;;;;;;5.24;87.22;101629.94;5028783;28;20115;-45
2023/02/01 00:38:46;;;;;;;17.60;5.43;;;;;;;5.24;87.25;101635.41;5028818;28;20037;-46
2023/02/01 00:41:18;;;;;;;18.15;3.60;;;;;;;5.24;87.11;101624.44;5029139;28;20136;-45
2023/02/01 00:43:45;;;;;;;21.85;5.30;;;;;;;5.24;87.11;101632.66;5028968;28;20048;-45
2023/02/01 00:46:14;;;;;;;17.55;3.70;;;;;;;5.25;87.31;101625.25;5029530;28;20049;-49
2023/02/01 00:48:40;;;;;;;18.52;3.83;;;;;;;5.26;87.39;101638.72;5025357;28;20034;-45
2023/02/01 00:51:12;;;;;;;14.32;4.00;;;;;;;5.28;87.67;101632.94;5022011;28;20088;-48
2023/02/01 00:53:38;;;;;;;17.25;4.50;;;;;;;5.30;87.42;101650.75;5022541;28;20475;-47
2023/02/01 00:56:06;;;;;;;16.25;3.55;;;;;;;5.31;87.64;101633.19;5028848;28;20049;-45
2023/02/01 00:58:33;;;;;;;19.70;3.17;;;;;;;5.33;87.44;101644.69;5016526;28;20030;-48
2023/02/01 01:01:05;;;;;;;19.42;3.47;;;;;;;5.33;87.53;101633.69;5028271;28;20057;-49
2023/02/01 01:03:34;;;;;;;17.85;2.92;;;;;;;5.33;87.38;101643.84;5019621;28;20045;-51
2023/02/01 01:06:05;;;;;;;14.38;3.47;;;;;;;5.34;87.20;101642.75;5028208;28;20064;-47
2023/02/01 01:08:32;;;;;;;18.08;2.95;;;;;;;5.34;87.30;101635.34;5028043;28;20136;-45
2023/02/01 01:11:04;;;;;;;14.13;3.20;;;;;;;5.33;87.16;101632.88;5029486;28;20041;-45
2023/02/01 01:13:31;;;;;;;12.90;3.53;;;;;;;5.32;87.40;101637.53;5017660;28;20407;-45
2023/02/01 01:16:02;;;;;;;12.57;3.90;;;;;;;5.31;87.19;101640.59;5027765;28;20046;-46
2023/02/01 01:18:33;;;;;;;18.55;5.55;;;;;;;5.31;87.59;101649.66;5028527;28;20095;-45
2023/02/01 01:21:00;;;;;;;14.00;3.58;;;;;;;5.31;87.41;101637.84;5036006;28;20038;-45
2023/02/01 01:23:27;;;;;;;18.48;4.57;;;;;;;5.29;87.44;101643.63;5028535;28;20060;-49
2023/02/01 01:25:54;;;;;;;11.40;2.88;;;;;;;5.29;87.69;101642.81;5028590;28;20052;-44
2023/02/01 01:28:21;;;;;;;15.73;2.55;;;;;;;5.27;87.73;101634.06;5026502;28;20087;-45
2023/02/01 01:30:48;;;;;;;20.20;5.50;;;;;;;5.25;87.63;101631.56;5028453;28;20479;-46
2023/02/01 01:33:15;;;;;;;16.95;2.92;;;;;;;5.26;87.62;101632.41;5030915;28;20045;-46
2023/02/01 01:35:42;;;;;;;14.18;2.72;;;;;;;5.24;88.03;101629.94;5029615;28;20073;-46
2023/02/01 01:38:11;;;;;;;18.00;4.90;;;;;;;5.23;88.00;101632.97;5032184;28;20084;-45
2023/02/01 01:40:38;;;;;;;11.02;3.03;;;;;;;5.22;87.69;101621.16;5032027;28;20068;-45
2023/02/01 01:43:13;;;;;;;20.90;4.60;;;;;;;5.23;87.97;101625.56;5031868;28;20041;-44
2023/02/01 01:45:40;;;;;;;22.30;6.78;;;;;;;5.28;88.13;101620.03;5019413;28;20140;-47
2023/02/01 01:48:28;;;;;;;15.88;3.33;;;;;;;5.31;88.06;101624.13;5027632;28;20407;-45
2023/02/01 01:51:10;;;;;;;13.40;2.92;;;;;;;5.31;87.90;101616.69;5023115;28;20056;-45
2023/02/01 01:53:44;;;;;;;18.58;3.88;;;;;;;5.30;88.06;101615.06;5029825;28;20045;-48
2023/02/01 01:56:12;;;;;;;16.38;4.05;;;;;;;5.29;88.06;101616.19;5029036;28;20073;-51
2023/02/01 01:58:39;;;;;;;21.33;4.03;;;;;;;5.29;88.11;101609.88;5021912;28;20100;-47
2023/02/01 02:01:06;;;;;;;23.40;3.70;;;;;;;5.26;88.23;101605.78;5016936;28;20137;-47
2023/02/01 02:03:39;;;;;;;20.83;5.03;;;;;;;5.26;88.27;101605.78;5031781;28;20049;-45
2023/02/01 02:06:23;;;;;;;17.35;3.47;;;;;;;5.25;88.55;101593.13;5024848;28;20038;-45
2023/02/01 02:08:51;;;;;;;15.90;3.05;;;;;;;5.25;88.59;101601.38;5032081;28;20073;-46
2023/02/01 02:11:18;;;;;;;37.00;5.90;;;;;;;5.24;88.86;101596.97;5033706;28;20057;-45
2023/02/01 02:13:49;;;;;;;20.98;3.97;;;;;;;5.23;88.92;101589.88;5031472;28;20045;-46
2023/02/01 02:16:39;;;;;;;25.50;4.68;;;;;;;5.21;88.90;101589.34;5031487;28;20056;-45
2023/02/01 02:19:28;;;;;;;16.55;3.80;;;;;;;5.21;88.95;101594.84;5023398;28;20057;-45
2023/02/01 02:22:33;;;;;;;16.15;6.20;;;;;;;5.19;89.27;101593.50;5031729;28;20041;-46
2023/02/01 02:25:22;;;;;;;20.60;3.63;;;;;;;5.18;89.12;101592.66;5017589;28;20077;-45
2023/02/01 02:28:00;;;;;;;35.58;5.85;;;;;;;5.16;89.11;101597.63;5027083;28;20080;-45
2023/02/01 02:30:42;;;;;;;15.93;5.20;;;;;;;5.14;89.54;101583.34;5031047;28;20111;-48
2023/02/01 02:33:42;;;;;;;17.15;4.30;;;;;;;5.14;89.53;101585.28;5031709;28;20111;-45
2023/02/01 02:36:37;;;;;;;18.60;3.90;;;;;;;5.14;89.85;101591.59;5020666;28;20118;-51
2023/02/01 02:39:08;;;;;;;22.23;5.10;;;;;;;5.12;89.62;101588.31;5030085;28;20045;-45
2023/02/01 02:48:27;;;;;;;22.33;4.80;;;;;;;5.10;90.24;101596.03;4969064;28;20070;-45
2023/02/01 03:05:07;;;;;;;20.13;3.63;;;;;;;5.15;90.11;101576.78;5009663;28;20050;-45
2023/02/01 03:07:43;;;;;;;25.65;5.00;;;;;;;5.15;90.33;101574.03;5003632;28;20141;-45
2023/02/01 03:10:49;;;;;;;20.90;4.40;;;;;;;5.18;90.25;101572.63;5006643;28;20102;-50
2023/02/01 03:13:36;;;;;;;17.02;3.85;;;;;;;5.17;90.25;101568.22;4998111;28;20531;-49
2023/02/01 03:16:26;;;;;;;25.65;4.40;;;;;;;5.16;90.49;101583.91;5005205;28;20046;-45
2023/02/01 03:19:26;;;;;;;25.20;3.80;;;;;;;5.16;90.70;101580.34;5010613;28;20058;-45
2023/02/01 03:21:57;;;;;;;17.20;3.83;;;;;;;5.19;90.67;101579.78;5002108;28;20046;-45
2023/02/01 03:24:37;;;;;;;23.55;4.38;;;;;;;5.19;90.37;101575.06;5010485;28;20050;-48
2023/02/01 03:27:10;;;;;;;17.77;4.47;;;;;;;5.20;90.36;101573.97;5010252;28;20472;-45
2023/02/01 03:29:46;;;;;;;17.70;3.45;;;;;;;5.19;90.38;101566.03;5010535;28;20062;-45
2023/02/01 03:32:13;;;;;;;22.92;3.75;;;;;;;5.20;90.84;101568.47;5012845;28;20251;-44
2023/02/01 03:34:40;;;;;;;22.55;3.53;;;;;;;5.21;90.53;101567.41;5014468;28;20137;-44
2023/02/01 03:37:11;;;;;;;18.45;3.70;;;;;;;5.22;90.77;101571.75;5010804;28;20053;-44
2023/02/01 03:40:02;;;;;;;28.38;4.82;;;;;;;5.24;90.71;101585.22;5010461;28;20140;-44
2023/02/01 03:42:37;;;;;;;26.45;4.45;;;;;;;5.23;90.81;101567.91;5010108;28;20065;-45
2023/02/01 03:45:13;;;;;;;21.48;4.22;;;;;;;5.22;90.60;101571.75;5009580;28;20058;-45
2023/02/01 03:47:43;;;;;;;33.20;5.50;;;;;;;5.23;90.76;101573.41;5004404;28;20049;-45
2023/02/01 03:50:15;;;;;;;24.80;4.45;;;;;;;5.23;90.86;101565.16;5003939;28;20049;-46
2023/02/01 03:52:43;;;;;;;34.55;5.43;;;;;;;5.24;90.95;101558.53;5005274;28;20037;-45
2023/02/01 03:55:13;;;;;;;21.00;5.25;;;;;;;5.23;90.96;101564.34;5005653;28;20049;-50
2023/02/01 03:57:51;;;;;;;17.42;5.00;;;;;;;5.22;90.93;101549.78;5007199;28;20496;-45
2023/02/01 04:00:21;;;;;;;24.55;3.38;;;;;;;5.23;91.04;101551.44;5003288;28;20062;-44
2023/02/01 04:02:50;;;;;;;24.80;4.40;;;;;;;5.22;91.02;101544.31;5006412;28;20104;-45
2023/02/01 04:05:17;;;;;;;12.85;3.53;;;;;;;5.22;91.23;101536.06;5004168;28;20104;-44
2023/02/01 04:07:44;;;;;;;20.05;4.25;;;;;;;5.23;90.90;101534.16;5007431;28;20046;-45
2023/02/01 04:10:12;;;;;;;26.67;5.97;;;;;;;5.24;91.25;101528.34;5008538;28;20140;-45
2023/02/01 04:12:38;;;;;;;10.38;3.20;;;;;;;5.27;91.36;101533.25;5004231;28;20768;-45
2023/02/01 04:15:06;;;;;;;14.63;3.10;;;;;;;5.30;91.11;101535.44;5005885;28;20050;-45
2023/02/01 04:17:33;;;;;;;21.77;3.75;;;;;;;5.32;91.18;101522.22;5005766;28;20086;-44
2023/02/01 04:19:59;;;;;;;22.63;2.70;;;;;;;5.35;91.23;101516.16;5004377;28;20549;-47
2023/02/01 04:22:26;;;;;;;20.00;2.90;;;;;;;5.36;91.16;101520.56;5004190;28;20142;-45
2023/02/01 04:24:53;;;;;;;16.38;4.10;;;;;;;5.40;91.49;101494.13;5005146;28;20046;-45
2023/02/01 04:27:19;;;;;;;21.75;5.00;;;;;;;5.43;91.24;101510.03;5006925;28;20037;-44
2023/02/01 04:29:46;;;;;;;21.95;4.13;;;;;;;5.45;91.26;101513.28;5006095;28;20352;-45
2023/02/01 04:32:13;;;;;;;25.83;4.57;;;;;;;5.47;91.22;101502.84;5003777;28;20048;-45
2023/02/01 04:34:39;;;;;;;24.10;4.25;;;;;;;5.48;91.00;101509.16;5006452;28;20041;-51
2023/02/01 04:37:09;;;;;;;18.92;4.85;;;;;;;5.48;91.11;101512.72;5005164;28;20131;-44
2023/02/01 04:39:36;;;;;;;16.10;4.00;;;;;;;5.49;91.13;101508.03;5006229;28;20052;-45
2023/02/01 04:42:02;;;;;;;23.50;3.75;;;;;;;5.47;91.54;101508.34;5004064;28;20044;-45
2023/02/01 04:44:29;;;;;;;50.20;6.88;;;;;;;5.49;90.96;101517.09;5005519;28;20112;-44
2023/02/01 04:46:56;;;;;;;20.60;6.13;;;;;;;5.48;91.06;101518.19;5005289;28;20061;-48
2023/02/01 04:49:25;;;;;;;26.42;3.92;;;;;;;5.48;90.97;101515.47;5004519;28;20256;-49
2023/02/01 04:51:52;;;;;;;12.68;2.92;;;;;;;5.49;90.91;101516.28;5003324;28;20523;-51
2023/02/01 04:54:19;;;;;;;22.48;5.07;;;;;;;5.50;90.98;101513.25;5005614;28;20065;-45
2023/02/01 04:56:46;;;;;;;13.45;3.17;;;;;;;5.49;90.80;101517.09;5006574;28;20523;-44
2023/02/01 04:59:13;;;;;;;17.90;4.00;;;;;;;5.50;91.07;101513.25;5005636;28;20042;-49
2023/02/01 05:01:40;;;;;;;18.55;3.42;;;;;;;5.50;91.05;101507.75;5002483;28;20567;-44
2023/02/01 05:04:07;;;;;;;14.15;3.70;;;;;;;5.52;90.96;101516.53;5004963;28;20077;-45
2023/02/01 05:06:34;;;;;;;21.00;4.43;;;;;;;5.53;90.87;101518.13;5004256;28;20049;-45
2023/02/01 05:09:01;;;;;;;19.23;3.95;;;;;;;5.54;90.87;101516.22;5006074;28;20053;-49
2023/02/01 05:14:13;;;;;;;20.63;3.70;;;;;;;5.56;90.76;101515.94;5015172;28;20275;-45
2023/02/01 05:16:39;;;;;;;27.55;3.67;;;;;;;5.56;90.35;101522.22;5008750;28;20053;-45
2023/02/01 05:19:06;;;;;;;25.00;4.03;;;;;;;5.54;90.67;101524.47;5009107;28;20133;-44
2023/02/01 05:21:33;;;;;;;18.77;3.80;;;;;;;5.54;90.64;101519.78;5009086;28;20060;-45
2023/02/01 05:24:09;;;;;;;16.80;4.07;;;;;;;5.55;90.64;101528.84;5008978;28;20041;-44
2023/02/01 05:26:37;;;;;;;13.23;3.30;;;;;;;5.54;90.60;101525.28;5009403;28;20278;-45
2023/02/01 05:29:05;;;;;;;26.52;4.78;;;;;;;5.53;90.60;101534.63;5008817;28;20080;-44
2023/02/01 05:31:32;;;;;;;25.65;3.90;;;;;;;5.54;90.39;101547.25;5008470;28;20050;-47
2023/02/01 05:33:59;;;;;;;17.00;3.28;;;;;;;5.57;90.58;101540.34;5008393;28;20526;-44
2023/02/01 05:36:26;;;;;;;17.95;4.38;;;;;;;5.58;90.56;101541.19;5009426;28;20060;-44
2023/02/01 05:38:53;;;;;;;21.48;3.20;;;;;;;5.58;90.46;101542.00;5007984;28;20111;-45
2023/02/01 05:41:19;;;;;;;16.52;2.90;;;;;;;5.59;90.34;101548.31;5001826;28;20042;-44
2023/02/01 05:43:46;;;;;;;19.08;4.85;;;;;;;5.59;90.27;101548.31;5005111;28;20054;-44
2023/02/01 05:46:13;;;;;;;18.98;3.25;;;;;;;5.59;90.48;101543.63;5003464;28;20053;-46
2023/02/01 05:48:42;;;;;;;16.42;3.13;;;;;;;5.59;90.42;101540.88;5005734;28;20058;-44
2023/02/01 05:51:10;;;;;;;18.98;3.72;;;;;;;5.57;90.57;101542.28;4998260;28;20432;-45
2023/02/01 05:53:37;;;;;;;17.17;3.25;;;;;;;5.56;90.52;101532.41;5005257;28;20144;-46
2023/02/01 05:56:04;;;;;;;19.55;4.07;;;;;;;5.56;90.29;101527.72;5004686;28;20482;-45
2023/02/01 05:58:31;;;;;;;17.05;4.97;;;;;;;5.56;90.49;101527.72;5003938;28;20069;-44
2023/02/01 06:01:02;;;;;;;15.15;3.13;;;;;;;5.56;90.38;101530.47;5003732;28;20050;-45
2023/02/01 06:03:29;;;;;;;21.23;3.92;;;;;;;5.55;90.57;101531.59;5004343;28;20045;-44
2023/02/01 06:05:56;;;;;;;15.68;4.07;;;;;;;5.56;90.32;101532.41;5006288;28;20042;-50
2023/02/01 06:08:25;;;;;;;17.08;3.28;;;;;;;5.56;90.42;101543.41;5000868;28;20046;-44
2023/02/01 06:11:01;;;;;;;19.88;3.72;;;;;;;5.55;90.48;101545.34;5004125;28;20053;-47
2023/02/01 06:13:28;;;;;;;14.88;2.75;;;;;;;5.57;90.39;101539.53;5001526;28;20431;-45
2023/02/01 06:15:55;;;;;;;13.57;2.85;;;;;;;5.57;90.57;101531.28;5003103;28;20069;-44
2023/02/01 06:18:24;;;;;;;13.45;2.83;;;;;;;5.57;90.29;101531.28;5003259;28;20092;-48
2023/02/01 06:21:00;;;;;;;25.45;5.00;;;;;;;5.58;90.82;101539.25;5004818;28;20137;-45
2023/02/01 06:23:28;;;;;;;19.05;3.58;;;;;;;5.60;90.45;101533.47;5003841;28;20065;-45
2023/02/01 06:26:04;;;;;;;17.17;4.25;;;;;;;5.61;90.73;101532.34;5011664;28;20345;-44
2023/02/01 06:28:32;;;;;;;23.17;3.20;;;;;;;5.59;90.74;101535.38;5009205;28;20412;-45
2023/02/01 06:31:06;;;;;;;22.00;4.05;;;;;;;5.59;90.81;101534.59;4999020;28;20129;-45
2023/02/01 06:33:34;;;;;;;14.60;4.28;;;;;;;5.59;90.76;101532.63;5015324;28;20531;-44
2023/02/01 06:36:04;;;;;;;20.02;5.10;;;;;;;5.60;90.79;101534.28;5003330;28;20137;-45
2023/02/01 06:38:31;;;;;;;17.70;4.35;;;;;;;5.61;90.97;101524.13;5011156;28;20104;-45
2023/02/01 06:40:58;;;;;;;22.73;3.10;;;;;;;5.62;90.85;101536.72;5011668;28;20046;-45
2023/02/01 06:43:26;;;;;;;22.35;4.18;;;;;;;5.64;90.90;101529.03;5016321;28;20505;-44
2023/02/01 06:45:58;;;;;;;20.58;5.15;;;;;;;5.64;90.88;101537.28;5011122;28;20100;-45
2023/02/01 06:48:25;;;;;;;15.82;3.45;;;;;;;5.64;91.27;101532.56;5012096;28;20048;-44
2023/02/01 06:50:52;;;;;;;17.63;3.08;;;;;;;5.65;90.89;101520.47;5011223;28;20053;-45
2023/02/01 06:53:19;;;;;;;26.77;4.53;;;;;;;5.66;91.09;101526.81;5011345;28;20053;-48
2023/02/01 06:56:00;;;;;;;14.93;3.92;;;;;;;5.65;91.35;101525.16;5011567;28;20058;-48
2023/02/01 06:58:32;;;;;;;21.40;4.95;;;;;;;5.66;91.08;101524.06;5009553;28;20073;-45
2023/02/01 07:01:10;;;;;;;20.77;4.68;;;;;;;5.65;91.04;101523.22;5003411;28;20056;-47
2023/02/01 07:03:37;;;;;;;16.95;3.38;;;;;;;5.66;91.44;101530.38;5008391;28;20041;-44
2023/02/01 07:06:04;;;;;;;17.45;4.53;;;;;;;5.65;91.29;101525.16;5006762;28;20046;-46
2023/02/01 07:08:34;;;;;;;20.75;4.10;;;;;;;5.66;91.30;101537.78;5002175;28;20054;-45
2023/02/01 07:11:05;;;;;;;20.48;4.47;;;;;;;5.66;91.69;101538.63;5012940;28;20131;-53
2023/02/01 07:13:32;;;;;;;23.85;3.90;;;;;;;5.66;91.50;101533.13;5004619;28;20161;-45
2023/02/01 07:16:00;;;;;;;20.80;3.72;;;;;;;5.69;91.70;101538.03;5004317;28;20157;-44
2023/02/01 07:18:29;;;;;;;24.88;4.25;;;;;;;5.71;91.65;101532.22;5007994;28;20495;-46
2023/02/01 07:20:56;;;;;;;13.77;4.28;;;;;;;5.70;91.54;101522.34;5007271;28;20042;-45
2023/02/01 07:23:24;;;;;;;26.27;4.00;;;;;;;5.72;91.76;101542.13;5002909;28;21510;-50
2023/02/01 07:25:55;;;;;;;29.88;5.30;;;;;;;5.74;91.85;101543.47;5005284;28;20073;-45
2023/02/01 07:28:23;;;;;;;27.23;4.30;;;;;;;5.76;91.87;101535.72;5004919;28;20038;-44
2023/02/01 07:30:53;;;;;;;21.05;4.18;;;;;;;5.78;91.86;101546.41;5004987;28;20038;-47
2023/02/01 07:33:22;;;;;;;23.63;4.40;;;;;;;5.81;91.85;101540.34;5003926;28;20422;-44
2023/02/01 07:35:49;;;;;;;27.67;3.95;;;;;;;5.81;91.81;101534.84;5007204;28;20048;-45
2023/02/01 07:38:17;;;;;;;19.77;4.47;;;;;;;5.82;91.75;101553.81;5002728;28;20428;-44
2023/02/01 07:40:44;;;;;;;20.75;4.25;;;;;;;5.83;91.77;101554.59;5009581;28;20080;-45
2023/02/01 07:43:10;;;;;;;21.55;3.90;;;;;;;5.83;91.85;101565.59;5006295;28;20081;-46
2023/02/01 07:45:37;;;;;;;19.45;3.58;;;;;;;5.84;91.80;101556.25;4995641;28;20145;-48
2023/02/01 07:48:04;;;;;;;24.10;4.32;;;;;;;5.86;91.91;101563.13;5001878;28;20534;-45
2023/02/01 07:50:31;;;;;;;25.67;4.32;;;;;;;5.88;91.95;101557.31;5009836;28;20212;-45
2023/02/01 07:53:00;;;;;;;20.00;4.30;;;;;;;5.89;91.83;101564.44;5004168;28;20054;-47
2023/02/01 07:55:28;;;;;;;19.00;3.17;;;;;;;5.89;92.02;101559.78;5009464;28;20499;-44
2023/02/01 07:57:58;;;;;;;16.63;2.80;;;;;;;5.90;91.97;101566.09;5009718;28;20053;-44
2023/02/01 08:03:11;;;;;;;26.00;5.18;;;;;;;5.90;92.30;101561.44;5009436;28;20041;-45
2023/02/01 08:05:38;;;;;;;22.75;3.83;;;;;;;5.90;92.19;101574.34;5008038;28;20056;-45
2023/02/01 08:08:05;;;;;;;16.27;4.20;;;;;;;5.93;92.32;101571.81;5009890;28;20084;-49
2023/02/01 08:10:32;;;;;;;21.15;4.45;;;;;;;5.95;92.27;101585.28;5021128;28;20443;-45
2023/02/01 08:12:59;;;;;;;13.82;4.25;;;;;;;5.97;92.50;101578.38;5009628;28;20050;-44
2023/02/01 08:15:27;;;;;;;26.45;4.30;;;;;;;6.00;92.39;101591.53;5003963;28;20070;-45
2023/02/01 08:17:54;;;;;;;36.08;6.88;;;;;;;6.01;92.38;101595.09;5000566;28;20050;-45
2023/02/01 08:20:28;;;;;;;22.63;5.10;;;;;;;6.01;92.37;101600.59;5006885;28;20050;-44
2023/02/01 08:22:56;;;;;;;15.23;4.20;;;;;;;6.02;92.48;101592.03;4995350;28;20145;-45
2023/02/01 08:25:23;;;;;;;25.25;4.85;;;;;;;6.02;92.59;101592.03;4994801;28;20103;-45
2023/02/01 08:27:50;;;;;;;16.75;4.13;;;;;;;6.03;92.73;101593.69;5003698;28;20042;-44
2023/02/01 08:30:17;;;;;;;15.10;3.60;;;;;;;6.03;92.81;101593.69;5005247;28;20159;-43
2023/02/01 08:32:44;;;;;;;20.60;5.20;;;;;;;6.06;92.76;101603.28;5002879;28;20042;-44
2023/02/01 08:35:12;;;;;;;50.53;16.63;;;;;;;6.10;92.80;101612.56;5003369;28;20061;-44
2023/02/01 08:37:38;;;;;;;28.73;11.52;;;;;;;6.11;93.09;101608.72;5006945;28;20042;-47
2023/02/01 08:40:06;;;;;;;18.35;4.50;;;;;;;6.13;92.68;101609.22;5002250;28;20491;-44
2023/02/01 08:42:50;;;;;;;18.95;4.38;;;;;;;6.17;92.73;101610.25;5003929;28;20141;-45
2023/02/01 08:45:25;;;;;;;23.50;6.40;;;;;;;6.24;92.79;101607.16;5004043;28;20049;-44
2023/02/01 08:47:52;;;;;;;22.08;5.05;;;;;;;6.28;92.87;101611.78;4997937;28;20041;-45
2023/02/01 08:50:20;;;;;;;21.48;5.63;;;;;;;6.34;92.82;101612.53;4996325;28;20463;-49
2023/02/01 08:52:48;;;;;;;25.65;4.63;;;;;;;6.40;93.04;101620.41;4998258;28;20145;-44
2023/02/01 08:55:15;;;;;;;17.33;4.20;;;;;;;6.47;92.79;101620.03;5005415;28;20050;-45
2023/02/01 08:57:42;;;;;;;26.38;3.67;;;;;;;6.53;92.95;101630.69;5008849;28;20065;-45
2023/02/01 09:00:13;;;;;;;21.23;4.88;;;;;;;6.59;92.82;101629.47;5003438;28;20057;-45
2023/02/01 09:02:40;;;;;;;18.20;4.53;;;;;;;6.66;92.77;101627.19;4997128;28;20066;-43
2023/02/01 09:05:07;;;;;;;17.33;3.92;;;;;;;6.73;92.67;101618.56;4998141;28;20038;-47
2023/02/01 09:07:34;;;;;;;15.65;3.58;;;;;;;6.78;92.55;101634.19;5001058;28;20045;-42
2023/02/01 09:10:02;;;;;;;15.30;4.88;;;;;;;6.83;92.53;101623.91;4997552;28;20042;-43
2023/02/01 09:12:31;;;;;;;24.85;4.80;;;;;;;6.89;92.34;101633.72;4999323;28;20407;-45
2023/02/01 09:14:59;;;;;;;21.23;4.32;;;;;;;6.94;92.27;101641.06;5000224;28;20049;-46
2023/02/01 09:17:27;;;;;;;18.45;3.75;;;;;;;6.99;92.20;101654.78;5008368;28;20423;-51
2023/02/01 09:19:59;;;;;;;19.50;3.90;;;;;;;7.00;92.23;101645.38;5002068;28;20038;-47
2023/02/01 09:22:26;;;;;;;14.27;4.38;;;;;;;6.99;92.09;101641.03;5001175;28;20045;-43
2023/02/01 09:24:53;;;;;;;22.48;4.78;;;;;;;6.99;92.21;101649.28;5004891;28;20515;-45
2023/02/01 09:27:21;;;;;;;14.93;4.65;;;;;;;6.99;92.18;101649.28;5004371;28;20056;-43
2023/02/01 09:29:52;;;;;;;20.10;3.78;;;;;;;7.03;92.11;101661.31;5006359;28;20046;-45
2023/02/01 09:32:23;;;;;;;25.10;4.03;;;;;;;7.08;91.96;101652.97;5005327;28;20084;-45
2023/02/01 09:34:52;;;;;;;20.75;4.25;;;;;;;7.14;91.91;101647.09;5014040;28;20042;-44
2023/02/01 09:37:19;;;;;;;34.65;5.63;;;;;;;7.20;91.92;101658.84;4999587;28;20046;-43
2023/02/01 09:39:46;;;;;;;19.83;4.25;;;;;;;7.28;91.73;101655.41;5007075;28;20471;-51
2023/02/01 09:42:38;;;;;;;25.15;4.97;;;;;;;7.32;91.60;101657.25;5001199;28;20525;-51
2023/02/01 09:45:28;;;;;;;17.52;3.72;;;;;;;7.41;91.46;101651.06;5003251;28;20042;-45
2023/02/01 09:47:59;;;;;;;25.20;5.85;;;;;;;7.42;91.45;101653.50;5000412;28;20419;-45
2023/02/01 09:50:50;;;;;;;26.67;5.10;;;;;;;7.44;91.32;101651.25;5002666;28;20587;-44
2023/02/01 09:53:32;;;;;;;24.08;4.30;;;;;;;7.45;91.29;101652.91;4998964;28;20040;-45
2023/02/01 09:56:06;;;;;;;17.55;3.55;;;;;;;7.47;91.44;101658.91;5005104;28;20042;-45
2023/02/01 09:58:56;;;;;;;24.15;5.45;;;;;;;7.49;91.37;101653.94;5004763;28;20761;-44
2023/02/01 10:01:25;;;;;;;20.88;4.35;;;;;;;7.51;91.40;101654.44;5005848;28;20096;-45
2023/02/01 10:04:01;;;;;;;20.92;3.25;;;;;;;7.51;91.34;101640.66;5008782;28;20050;-45
2023/02/01 10:06:38;;;;;;;26.10;7.40;;;;;;;7.53;91.28;101654.97;5008640;28;20049;-45
2023/02/01 10:09:57;;;;;;;21.10;4.63;;;;;;;7.55;91.07;101651.88;4998481;28;20054;-47
2023/02/01 10:12:36;;;;;;;26.95;4.90;;;;;;;7.56;91.28;101662.63;5003695;28;20052;-48
2023/02/01 10:15:19;;;;;;;26.65;5.40;;;;;;;7.60;91.03;101644.34;5006815;28;20484;-48
2023/02/01 10:18:37;;;;;;;24.48;4.05;;;;;;;7.64;91.20;101645.38;5000517;28;20466;-45
2023/02/01 10:22:02;;;;;;;15.50;3.60;;;;;;;7.72;90.98;101658.47;4989697;28;20062;-51
2023/02/01 10:24:46;;;;;;;18.55;3.95;;;;;;;7.75;90.81;101665.31;4950095;28;20046;-44
2023/02/01 10:27:26;;;;;;;16.90;3.78;;;;;;;7.76;90.71;101659.47;5009538;28;20057;-44
2023/02/01 10:30:00;;;;;;;27.42;3.97;;;;;;;7.80;90.47;101652.25;5008294;28;20049;-46
2023/02/01 10:32:34;;;;;;;19.95;4.85;;;;;;;7.83;90.56;101664.63;5007019;28;20118;-44
2023/02/01 10:35:12;;;;;;;21.58;3.60;;;;;;;7.88;90.76;101659.00;5005745;28;20046;-46
2023/02/01 10:37:41;;;;;;;16.23;2.78;;;;;;;7.94;90.85;101655.81;5011846;28;20050;-44
2023/02/01 10:40:21;;;;;;;30.38;5.55;;;;;;;8.05;90.51;101663.91;5007257;28;20426;-44
2023/02/01 10:42:51;;;;;;;18.95;3.13;;;;;;;8.08;90.36;101671.56;5008769;28;20077;-44
2023/02/01 10:45:21;;;;;;;16.05;3.10;;;;;;;8.09;90.29;101667.69;5002527;28;20495;-48
2023/02/01 10:47:50;;;;;;;16.15;2.63;;;;;;;8.12;90.25;101667.06;5005320;28;20128;-46
2023/02/01 10:50:40;;;;;;;12.43;2.92;;;;;;;8.16;90.15;101679.13;5002643;28;20448;-45
2023/02/01 10:53:16;;;;;;;17.75;3.20;;;;;;;8.24;90.39;101670.13;5006302;28;20078;-47
2023/02/01 10:55:52;;;;;;;19.38;3.90;;;;;;;8.33;90.18;101669.16;5005750;28;20038;-50
2023/02/01 10:58:32;;;;;;;13.27;3.50;;;;;;;8.41;89.92;101675.88;5009653;28;20046;-44
2023/02/01 11:01:10;;;;;;;20.48;3.58;;;;;;;8.44;89.95;101683.56;4988288;28;20420;-44
2023/02/01 11:03:43;;;;;;;18.42;4.22;;;;;;;8.46;89.80;101684.06;5005386;28;20046;-44
2023/02/01 11:06:27;;;;;;;20.77;5.22;;;;;;;8.51;89.80;101693.06;5007836;28;20050;-45
2023/02/01 11:09:00;;;;;;;22.13;3.58;;;;;;;8.55;89.94;101688.53;5007745;28;20046;-46
2023/02/01 11:11:28;;;;;;;17.67;3.83;;;;;;;8.59;89.74;101702.53;5014436;28;20052;-45
2023/02/01 11:14:01;;;;;;;11.85;3.85;;;;;;;8.58;89.62;101703.66;5008951;28;20373;-44
2023/02/01 11:16:32;;;;;;;18.92;3.35;;;;;;;8.56;89.52;101712.25;5007973;28;20060;-48
2023/02/01 11:18:59;;;;;;;21.37;4.17;;;;;;;8.55;89.61;101709.81;5006222;28;20050;-46
2023/02/01 11:21:27;;;;;;;16.15;2.97;;;;;;;8.51;89.51;101697.75;5008294;28;20576;-46
2023/02/01 11:23:54;;;;;;;17.48;4.10;;;;;;;8.47;89.66;101705.03;5009989;28;20061;-43
2023/02/01 11:26:26;;;;;;;20.58;3.95;;;;;;;8.44;89.77;101697.34;5004343;28;20048;-47
2023/02/01 11:28:59;;;;;;;24.23;5.32;;;;;;;8.42;89.81;101694.88;5007871;28;20488;-47
2023/02/01 11:31:28;;;;;;;27.15;4.65;;;;;;;8.45;89.92;101691.50;5006163;28;20423;-44
2023/02/01 11:34:04;;;;;;;14.90;3.83;;;;;;;8.51;89.75;101672.91;5004779;28;20159;-45
2023/02/01 11:36:33;;;;;;;23.30;3.92;;;;;;;8.55;89.47;101665.66;5006715;28;20049;-44
2023/02/01 11:39:12;;;;;;;18.40;3.58;;;;;;;8.60;89.55;101678.53;5006015;28;20068;-43
2023/02/01 11:41:58;;;;;;;13.88;3.30;;;;;;;8.61;89.30;101672.69;5006375;28;20133;-44
2023/02/01 11:44:32;;;;;;;14.70;4.93;;;;;;;8.65;89.23;101665.44;5008551;28;20056;-44
2023/02/01 11:47:17;;;;;;;20.08;4.18;;;;;;;8.72;89.24;101682.38;5008116;28;20042;-47
2023/02/01 11:49:44;;;;;;;22.90;4.45;;;;;;;8.76;89.24;101672.38;5004447;28;20060;-44
2023/02/01 11:52:16;;;;;;;20.48;3.42;;;;;;;8.81;89.16;101674.19;5002853;28;20042;-44
2023/02/01 11:55:08;;;;;;;14.68;3.25;;;;;;;8.86;89.07;101663.84;5002241;28;20116;-43
2023/02/01 11:57:52;;;;;;;18.25;3.75;;;;;;;8.88;89.04;101661.59;5007017;28;20141;-43
2023/02/01 12:00:41;;;;;;;20.83;4.22;;;;;;;8.91;89.04;101655.44;5002962;28;21573;-44
2023/02/01 12:03:45;;;;;;;17.50;3.70;;;;;;;8.97;88.82;101654.19;5003273;28;20054;-43
2023/02/01 12:06:12;;;;;;;17.08;4.45;;;;;;;8.98;88.44;101658.56;4977205;28;20068;-44
2023/02/01 12:08:41;;;;;;;17.88;4.07;;;;;;;9.01;88.55;101657.97;5005789;28;20361;-50
2023/02/01 12:11:29;;;;;;;16.83;3.83;;;;;;;9.06;88.50;101641.25;5006211;28;20065;-43
2023/02/01 12:14:19;;;;;;;14.20;3.65;;;;;;;9.08;88.44;101640.97;5004273;28;20045;-51